La Serena, La Serena La Florida Airport (SCSE)

NameLa Serena La Florida Airport
CityLa Serena
CountryChile
ICAOSCSE
IATALSC
Altitude147 m
CoordinatesGoogle Map
Live Air TrafficLiveATC.net
METARSCSE 172200Z 29006KT CAVOK 12/09 Q1018
2019-07-17 22:00:00 Wind: West (290°) 3.09 m/s - Visibility: > 10000 m - Weather: CAVOK - Temperature: 12 °C - Dew point: 9 °C - Humidity: 82% - Pressure: 1018 hPa
Statistics

The table below shows the detailed information of all flights to/from La Serena, La Serena La Florida Airport (SCSE).